Etusivu
METAR-TAF:

METAR-TAF

Lentoasemat :

Princeton Municipal Airport

Princeton, Minnesota, Yhdysvallat

Leveyspiiri: 45-33N, Pituuspiiri: 093-36W, korkeus merenpinnasta: 298 m

Tämänhetkinen sää

Tämä raportti tehtiin 16 minuuttia sitten, kello 11.35 UTC
Tuuli 4 kn etelästä/lounaasta
Lämpötila -11°C
Kosteus 85%
Ilmanpaine 1021 hPa
Näkyvyys: 4.8 km
Hajonneita pilviä 200 ft:n korkeudessa
utua

METAR: KPNM 101135Z AUTO 20004KT 3SM BR BKN002 M11/M13 A3015 RMK AO2

Aika: 05:51 (11:51 UTC)


TAF: puuttuu

Säähavainnot ja -ennusteet yli 4000 lentoasemalta (METAR- ja TAF-raportit).

Käytössä olevat sääasemat on merkitty karttaan keltaisilla ja punaisilla pisteillä.

Aseta hiiri pisteen päälle nähdäksesi sääaseman nimen.

Klikkaa sitten nähdäksesi säähavainnot ja -ennusteet.

Kartan vaihtaminen: klikkaa mustalla rastilla varustettuja vihreitä pisteitä, niin voit zoomata sisään; viivalla varustettua vihreää pistettä, niin voit zoomata ulos tai vihreitä nuolia, niin pääset viereisille kartoille.


METAR-TAF: